Time;durP1;ratioP1;P1;durP2;ratioP2;P2;SDS_P1;SDS_P2;PMS_P1;PMS_P2;Temp;Humidity;BMP_temperature;BMP_pressure;BME280_temperature;BME280_humidity;BME280_pressure;Samples;Min_cycle;Max_cycle;Signal;HPM_P1;HPM_P2
2021/12/03 00:00:45;;;;;;;5.93;1.80;;;19.10;58.60;;;;;;6146062;22;92880;-61
2021/12/03 00:03:11;;;;;;;5.78;1.75;;;19.10;58.60;;;;;;6146811;22;92712;-64
2021/12/03 00:05:38;;;;;;;5.05;2.00;;;19.10;58.60;;;;;;6145352;22;94369;-63
2021/12/03 00:08:05;;;;;;;5.32;1.95;;;19.10;58.60;;;;;;6145062;22;93789;-64
2021/12/03 00:10:31;;;;;;;5.32;1.80;;;19.10;58.60;;;;;;6145357;22;92537;-64
2021/12/03 00:12:58;;;;;;;5.15;2.15;;;19.10;58.60;;;;;;6145592;22;91434;-62
2021/12/03 00:15:25;;;;;;;4.55;1.90;;;19.10;58.50;;;;;;6145973;22;93141;-63
2021/12/03 00:17:52;;;;;;;4.53;1.90;;;19.00;58.50;;;;;;6146255;22;92237;-61
2021/12/03 00:20:19;;;;;;;8.25;2.10;;;19.00;58.50;;;;;;6145735;22;94962;-62
2021/12/03 00:22:47;;;;;;;4.70;2.03;;;19.00;58.50;;;;;;6145216;22;93050;-60
2021/12/03 00:25:13;;;;;;;4.18;2.05;;;19.00;58.60;;;;;;6145294;22;98341;-61
2021/12/03 00:27:40;;;;;;;5.78;2.13;;;19.00;58.50;;;;;;6146365;22;93380;-61
2021/12/03 00:30:08;;;;;;;6.80;1.92;;;19.00;58.50;;;;;;6145123;22;92192;-62
2021/12/03 00:32:34;;;;;;;7.35;2.28;;;19.00;58.50;;;;;;6145733;22;92410;-61
2021/12/03 00:35:00;;;;;;;4.20;1.90;;;18.90;58.50;;;;;;6144587;22;94897;-61
2021/12/03 00:37:25;;;;;;;4.95;1.90;;;18.90;58.50;;;;;;6145388;22;95125;-60
2021/12/03 00:39:51;;;;;;;4.05;1.77;;;18.90;58.50;;;;;;6145746;22;93187;-61
2021/12/03 00:42:18;;;;;;;7.20;2.28;;;18.90;58.50;;;;;;6146106;22;92346;-62
2021/12/03 00:44:55;;;;;;;4.70;1.98;;;18.90;58.50;;;;;;6144839;22;95057;-60
2021/12/03 00:47:21;;;;;;;4.13;1.85;;;18.90;58.50;;;;;;6145438;22;92941;-62
2021/12/03 00:49:46;;;;;;;6.35;1.83;;;18.90;58.50;;;;;;6147053;22;92391;-60
2021/12/03 00:52:12;;;;;;;4.75;2.13;;;18.90;58.50;;;;;;6145672;22;92600;-60
2021/12/03 00:54:38;;;;;;;7.65;2.50;;;18.80;58.50;;;;;;6145356;22;96542;-60
2021/12/03 00:57:04;;;;;;;5.28;1.85;;;18.90;58.50;;;;;;6148632;22;93307;-60
2021/12/03 00:59:30;;;;;;;3.35;1.63;;;18.80;58.50;;;;;;6148381;22;92252;-61
2021/12/03 01:01:56;;;;;;;4.50;1.73;;;18.80;58.50;;;;;;6149023;22;92083;-61
2021/12/03 01:04:22;;;;;;;3.72;1.73;;;18.80;58.50;;;;;;6148181;22;94421;-60
2021/12/03 01:06:48;;;;;;;4.07;1.70;;;18.80;58.50;;;;;;6148157;22;94797;-63
2021/12/03 01:09:14;;;;;;;7.07;1.75;;;18.80;58.50;;;;;;6149135;22;93642;-61
2021/12/03 01:11:40;;;;;;;3.70;1.77;;;18.80;58.50;;;;;;6148748;22;92638;-62
2021/12/03 01:14:06;;;;;;;4.15;1.60;;;18.70;58.40;;;;;;6147737;22;94550;-61
2021/12/03 01:16:32;;;;;;;6.53;1.92;;;18.80;58.50;;;;;;6147525;22;93790;-61
2021/12/03 01:18:58;;;;;;;4.47;1.77;;;18.80;58.50;;;;;;6149378;22;92183;-61
2021/12/03 01:21:24;;;;;;;5.90;2.03;;;18.80;58.50;;;;;;6148151;22;92368;-64
2021/12/03 01:23:51;;;;;;;4.20;1.55;;;18.70;58.40;;;;;;6148275;22;95980;-60
2021/12/03 01:26:18;;;;;;;4.30;1.90;;;18.70;58.40;;;;;;6148224;22;95414;-62
2021/12/03 01:28:45;;;;;;;4.95;2.40;;;18.70;58.40;;;;;;6149230;22;92592;-63
2021/12/03 01:31:12;;;;;;;4.25;2.13;;;18.70;58.40;;;;;;6147937;22;93322;-62
2021/12/03 01:33:38;;;;;;;5.10;1.63;;;18.70;58.40;;;;;;6146937;22;98432;-61
2021/12/03 01:36:04;;;;;;;4.45;1.90;;;18.70;58.40;;;;;;6147154;22;96707;-62
2021/12/03 01:38:30;;;;;;;6.07;2.13;;;18.70;58.40;;;;;;6147799;22;92988;-63
2021/12/03 01:40:56;;;;;;;6.18;2.15;;;18.70;58.40;;;;;;6148837;22;92454;-62
2021/12/03 01:43:26;;;;;;;4.78;1.60;;;18.70;58.40;;;;;;6147885;22;94276;-61
2021/12/03 01:45:54;;;;;;;3.65;1.83;;;18.60;58.40;;;;;;6148386;22;93020;-61
2021/12/03 01:48:20;;;;;;;3.90;1.70;;;18.70;58.40;;;;;;6147973;22;92732;-63
2021/12/03 01:50:47;;;;;;;5.47;1.73;;;18.70;58.40;;;;;;6148685;22;91374;-63
2021/12/03 01:53:16;;;;;;;4.05;1.70;;;18.60;58.40;;;;;;6147397;22;94363;-63
2021/12/03 01:55:44;;;;;;;2.72;1.30;;;18.70;58.40;;;;;;6147697;22;95676;-61
2021/12/03 01:58:10;;;;;;;4.53;1.65;;;18.60;58.30;;;;;;6146819;22;93565;-62
2021/12/03 02:00:51;;;;;;;5.50;1.77;;;18.60;58.30;;;;;;6148074;22;92712;-60
2021/12/03 02:03:18;;;;;;;4.63;1.77;;;18.60;58.30;;;;;;6149544;22;93039;-62
2021/12/03 02:05:44;;;;;;;4.13;1.48;;;18.60;58.30;;;;;;6147836;22;94818;-61
2021/12/03 02:08:10;;;;;;;3.72;1.67;;;18.60;58.30;;;;;;6145740;22;92877;-62
2021/12/03 02:10:38;;;;;;;3.58;2.03;;;18.60;58.20;;;;;;6146115;22;92480;-61
2021/12/03 02:13:05;;;;;;;2.63;1.40;;;18.60;58.20;;;;;;6145632;22;98672;-61
2021/12/03 02:15:31;;;;;;;6.10;1.90;;;18.60;58.20;;;;;;6146503;22;95342;-60
2021/12/03 02:17:57;;;;;;;3.88;1.60;;;18.60;58.30;;;;;;6146589;22;92470;-60
2021/12/03 02:20:23;;;;;;;3.65;2.17;;;18.60;58.20;;;;;;6146992;22;92405;-63
2021/12/03 02:22:49;;;;;;;4.15;1.90;;;18.60;58.20;;;;;;6145363;22;97019;-60
2021/12/03 02:25:22;;;;;;;3.10;1.48;;;18.60;58.20;;;;;;6145770;22;96700;-63
2021/12/03 02:27:50;;;;;;;3.53;1.25;;;18.50;58.10;;;;;;6145480;22;92538;-62
2021/12/03 02:30:16;;;;;;;3.35;1.40;;;18.60;58.20;;;;;;6146285;22;92467;-63
2021/12/03 02:32:42;;;;;;;3.22;1.40;;;18.60;58.20;;;;;;6146221;22;95695;-61
2021/12/03 02:35:09;;;;;;;3.20;1.48;;;18.50;58.10;;;;;;6145444;22;93913;-63
2021/12/03 02:37:34;;;;;;;4.00;1.55;;;18.50;58.10;;;;;;6145909;22;92580;-61
2021/12/03 02:40:00;;;;;;;2.92;1.38;;;18.50;58.10;;;;;;6147086;22;91769;-61
2021/12/03 02:42:26;;;;;;;3.88;1.70;;;18.50;58.10;;;;;;6145266;22;94325;-63
2021/12/03 02:44:52;;;;;;;3.85;1.63;;;18.50;58.10;;;;;;6146505;22;93531;-61
2021/12/03 02:47:18;;;;;;;3.80;1.90;;;18.50;58.10;;;;;;6146441;22;93551;-61
2021/12/03 02:49:44;;;;;;;4.05;1.60;;;18.50;58.10;;;;;;6145870;22;92951;-60
2021/12/03 02:52:10;;;;;;;4.60;1.60;;;18.50;58.10;;;;;;6146868;22;93011;-63
2021/12/03 02:54:37;;;;;;;3.55;1.50;;;18.50;58.10;;;;;;6146139;22;93172;-60
2021/12/03 02:57:03;;;;;;;3.88;1.55;;;18.50;58.10;;;;;;6145992;22;93051;-60
2021/12/03 02:59:32;;;;;;;4.07;1.85;;;18.50;58.10;;;;;;6145350;22;92750;-62
2021/12/03 03:01:58;;;;;;;2.97;1.50;;;18.50;58.00;;;;;;6146809;22;93170;-61
2021/12/03 03:04:23;;;;;;;2.55;1.42;;;18.50;58.00;;;;;;6145260;22;93877;-62
2021/12/03 03:06:49;;;;;;;3.80;1.48;;;18.40;58.00;;;;;;6147424;22;92084;-61
2021/12/03 03:09:15;;;;;;;2.97;1.40;;;18.50;58.00;;;;;;6146684;22;92359;-60
2021/12/03 03:11:40;;;;;;;4.45;2.00;;;18.40;58.00;;;;;;6145532;22;95443;-60
2021/12/03 03:14:06;;;;;;;3.72;1.60;;;18.40;57.90;;;;;;6146934;22;94221;-62
2021/12/03 03:16:32;;;;;;;4.43;1.63;;;18.40;57.90;;;;;;6147377;22;92074;-61
2021/12/03 03:18:58;;;;;;;2.53;1.40;;;18.40;58.00;;;;;;6145897;22;92796;-60
2021/12/03 03:21:25;;;;;;;2.83;1.60;;;18.40;57.90;;;;;;6145103;22;96159;-60
2021/12/03 03:23:51;;;;;;;3.40;1.60;;;18.40;57.90;;;;;;6145450;22;95518;-60
2021/12/03 03:26:17;;;;;;;3.40;1.80;;;18.40;57.90;;;;;;6146250;22;92892;-62
2021/12/03 03:28:44;;;;;;;3.90;1.90;;;18.40;57.90;;;;;;6147172;22;92033;-63
2021/12/03 03:31:10;;;;;;;2.45;1.40;;;18.40;57.90;;;;;;6146007;22;95908;-60
2021/12/03 03:33:36;;;;;;;4.28;1.73;;;18.40;57.90;;;;;;6146582;22;92212;-60
2021/12/03 03:36:02;;;;;;;3.20;1.40;;;18.40;57.90;;;;;;6146486;22;94626;-63
2021/12/03 03:38:28;;;;;;;2.47;1.20;;;18.40;57.90;;;;;;6146235;22;92253;-61
2021/12/03 03:40:54;;;;;;;2.78;1.50;;;18.40;57.80;;;;;;6145471;22;96625;-61
2021/12/03 03:43:20;;;;;;;2.30;1.20;;;18.40;57.80;;;;;;6145983;22;96154;-63
2021/12/03 03:45:46;;;;;;;2.67;1.35;;;18.30;57.70;;;;;;6147277;22;92248;-61
2021/12/03 03:48:13;;;;;;;3.75;1.52;;;18.40;57.80;;;;;;6146803;22;92582;-63
2021/12/03 03:50:39;;;;;;;3.15;1.48;;;18.40;57.80;;;;;;6145568;22;96142;-60
2021/12/03 03:53:05;;;;;;;2.90;1.60;;;18.40;57.80;;;;;;6147420;22;92648;-60
2021/12/03 03:55:32;;;;;;;3.38;1.33;;;18.30;57.70;;;;;;6146031;22;92158;-61
2021/12/03 03:58:01;;;;;;;4.97;1.50;;;18.30;57.70;;;;;;6145066;22;92239;-61
2021/12/03 04:00:34;;;;;;;4.28;1.58;;;18.30;57.70;;;;;;6143931;22;98427;-61
2021/12/03 04:03:00;;;;;;;2.80;1.40;;;18.30;57.70;;;;;;6145075;22;94878;-61
2021/12/03 04:05:29;;;;;;;2.78;1.50;;;18.30;57.70;;;;;;6147003;22;92532;-82
2021/12/03 04:07:56;;;;;;;2.80;1.45;;;18.30;57.70;;;;;;6147908;22;92481;-80
2021/12/03 04:10:21;;;;;;;1.83;1.30;;;18.30;57.70;;;;;;6147287;22;92528;-82
2021/12/03 04:12:47;;;;;;;3.63;1.52;;;18.30;57.70;;;;;;6148267;22;93204;-84
2021/12/03 04:15:14;;;;;;;2.92;1.63;;;18.30;57.70;;;;;;6148002;22;92485;-80
2021/12/03 04:17:40;;;;;;;3.40;1.50;;;18.20;57.60;;;;;;6146334;22;91829;-81
2021/12/03 04:20:09;;;;;;;3.97;1.58;;;18.20;57.70;;;;;;6146879;22;95493;-85
2021/12/03 04:22:34;;;;;;;3.53;1.70;;;18.30;57.70;;;;;;6147585;22;92446;-80
2021/12/03 04:25:01;;;;;;;3.13;1.55;;;18.30;57.70;;;;;;6146379;22;93995;-83
2021/12/03 04:27:27;;;;;;;2.45;1.65;;;18.20;57.60;;;;;;6147096;22;93147;-80
2021/12/03 04:29:53;;;;;;;2.08;1.20;;;18.20;57.60;;;;;;6145478;22;95227;-81
2021/12/03 04:32:19;;;;;;;2.45;1.35;;;18.20;57.60;;;;;;6148166;22;92793;-81
2021/12/03 04:34:45;;;;;;;2.72;1.58;;;18.30;57.70;;;;;;6147786;22;92776;-80
2021/12/03 04:37:11;;;;;;;2.92;1.58;;;18.20;57.60;;;;;;6148178;22;92419;-84
2021/12/03 04:39:37;;;;;;;3.25;1.55;;;18.20;57.60;;;;;;6147851;22;93355;-84
2021/12/03 04:42:03;;;;;;;3.53;1.40;;;18.20;57.90;;;;;;6147458;22;92537;-81
2021/12/03 04:44:29;;;;;;;3.05;1.60;;;18.20;57.60;;;;;;6148613;22;92196;-82
2021/12/03 04:46:55;;;;;;;3.28;1.45;;;18.20;57.70;;;;;;6147260;22;92537;-79
2021/12/03 04:49:20;;;;;;;2.85;1.55;;;18.20;57.60;;;;;;6147348;22;94023;-81
2021/12/03 04:51:46;;;;;;;3.05;1.65;;;18.20;57.60;;;;;;6147990;22;93641;-80
2021/12/03 04:54:11;;;;;;;3.85;1.52;;;18.10;57.60;;;;;;6147825;22;92022;-85
2021/12/03 04:56:37;;;;;;;2.65;1.42;;;18.10;57.60;;;;;;6148669;22;92531;-82
2021/12/03 04:59:03;;;;;;;2.13;1.17;;;18.10;57.60;;;;;;6148792;22;93537;-79
2021/12/03 05:01:29;;;;;;;5.05;1.40;;;18.20;57.60;;;;;;6154567;22;93039;-89
2021/12/03 05:03:54;;;;;;;3.17;1.88;;;18.10;57.60;;;;;;6155021;22;92485;-86
2021/12/03 05:06:29;;;;;;;2.92;1.48;;;18.20;57.60;;;;;;6153854;22;91732;-84
2021/12/03 05:08:55;;;;;;;2.25;1.20;;;18.10;57.60;;;;;;6153772;22;92270;-88
2021/12/03 05:11:21;;;;;;;4.72;1.50;;;18.10;57.60;;;;;;6153820;22;92555;-90
2021/12/03 05:13:47;;;;;;;3.42;1.60;;;18.10;57.60;;;;;;6154834;22;92965;-87
2021/12/03 05:16:13;;;;;;;3.03;1.67;;;18.10;58.00;;;;;;6155444;22;92059;-85
2021/12/03 05:18:38;;;;;;;2.15;1.05;;;18.10;57.60;;;;;;6153971;22;92639;-92
2021/12/03 05:21:04;;;;;;;3.88;1.48;;;18.10;57.50;;;;;;6154232;22;92487;-87
2021/12/03 05:23:31;;;;;;;3.05;1.40;;;18.10;57.50;;;;;;6153936;22;92275;-87
2021/12/03 05:25:58;;;;;;;4.43;1.92;;;18.10;57.50;;;;;;6152698;22;92522;-87
2021/12/03 05:28:25;;;;;;;3.60;1.83;;;18.10;57.50;;;;;;6152984;22;92837;-88
2021/12/03 05:30:51;;;;;;;2.97;1.17;;;18.10;57.60;;;;;;6152556;22;94470;-90
2021/12/03 05:33:19;;;;;;;2.95;1.38;;;18.10;57.50;;;;;;6153328;22;91980;-88
2021/12/03 05:35:45;;;;;;;2.90;1.30;;;18.10;57.50;;;;;;6154995;22;91942;-88
2021/12/03 05:38:11;;;;;;;4.20;1.73;;;18.00;57.50;;;;;;6152043;22;96463;-86
2021/12/03 05:40:37;;;;;;;3.28;1.60;;;18.00;57.50;;;;;;6151490;22;96443;-82
2021/12/03 05:43:03;;;;;;;4.18;1.58;;;18.00;57.50;;;;;;6153855;22;92280;-92
2021/12/03 05:45:32;;;;;;;3.88;1.48;;;18.00;57.50;;;;;;6154052;22;92723;-88
2021/12/03 05:47:58;;;;;;;2.90;1.20;;;18.00;58.00;;;;;;6154038;22;95981;-85
2021/12/03 05:50:25;;;;;;;4.35;1.38;;;18.00;57.50;;;;;;6152742;22;92393;-81
2021/12/03 05:52:52;;;;;;;3.72;1.85;;;18.00;57.50;;;;;;6154630;22;92573;-86
2021/12/03 05:55:18;;;;;;;2.17;1.00;;;18.00;57.60;;;;;;6154546;22;91414;-88
2021/12/03 05:57:45;;;;;;;2.95;1.30;;;18.00;57.60;;;;;;6153576;22;93125;-86
2021/12/03 06:00:18;;;;;;;2.78;1.30;;;18.00;57.60;;;;;;6153596;22;92484;-82
2021/12/03 06:02:45;;;;;;;2.80;1.20;;;18.00;57.60;;;;;;6152598;22;92966;-88
2021/12/03 06:05:11;;;;;;;2.28;1.13;;;17.90;57.60;;;;;;6152027;22;92488;-87
2021/12/03 06:07:36;;;;;;;4.20;1.52;;;17.90;57.60;;;;;;6150969;22;94442;-82
2021/12/03 06:10:03;;;;;;;3.08;1.52;;;17.90;57.60;;;;;;6153048;22;92073;-88
2021/12/03 06:12:29;;;;;;;2.67;1.40;;;17.90;57.60;;;;;;6152277;22;92076;-89
2021/12/03 06:14:54;;;;;;;3.25;1.35;;;17.90;57.60;;;;;;6152276;22;92746;-89
2021/12/03 06:17:20;;;;;;;1.95;1.20;;;17.90;57.60;;;;;;6152323;22;94404;-90
2021/12/03 06:19:46;;;;;;;3.67;1.35;;;17.90;57.70;;;;;;6151074;22;95346;-81
2021/12/03 06:22:12;;;;;;;3.60;1.13;;;17.90;57.70;;;;;;6150109;22;92069;-81
2021/12/03 06:24:39;;;;;;;3.28;1.30;;;17.90;57.80;;;;;;6149945;22;92720;-80
2021/12/03 06:27:05;;;;;;;3.20;1.08;;;17.90;57.80;;;;;;6148375;22;94046;-79
2021/12/03 06:29:31;;;;;;;2.03;1.10;;;18.00;57.70;;;;;;6149032;22;93425;-81
2021/12/03 06:31:56;;;;;;;1.85;1.00;;;18.00;57.60;;;;;;6152700;22;92137;-86
2021/12/03 06:34:22;;;;;;;2.92;1.33;;;18.10;57.50;;;;;;6153033;22;92106;-82
2021/12/03 06:36:49;;;;;;;2.70;1.30;;;18.20;57.40;;;;;;6152869;22;92813;-89
2021/12/03 06:39:14;;;;;;;3.15;1.60;;;18.40;57.30;;;;;;6150845;22;94878;-78
2021/12/03 06:41:40;;;;;;;2.05;1.02;;;18.50;57.20;;;;;;6149848;22;92547;-80
2021/12/03 06:44:08;;;;;;;6.40;2.50;;;18.50;57.00;;;;;;6149695;22;91464;-83
2021/12/03 06:46:37;;;;;;;3.40;1.35;;;18.60;56.90;;;;;;6148475;22;93495;-79
2021/12/03 06:49:03;;;;;;;6.47;1.42;;;18.80;57.00;;;;;;6148355;22;92638;-83
2021/12/03 06:51:30;;;;;;;4.07;1.55;;;18.80;57.00;;;;;;6147812;22;93543;-81
2021/12/03 06:54:03;;;;;;;7.78;1.35;;;18.90;57.10;;;;;;6145678;22;92212;-78
2021/12/03 06:56:33;;;;;;;3.97;1.42;;;19.00;57.00;;;;;;6148187;22;92789;-78
2021/12/03 06:58:59;;;;;;;5.30;1.00;;;19.00;56.90;;;;;;6146604;22;95667;-81
2021/12/03 07:01:25;;;;;;;4.25;1.50;;;19.10;56.90;;;;;;6147240;22;92482;-79
2021/12/03 07:03:51;;;;;;;4.47;1.33;;;19.20;56.90;;;;;;6148019;22;92901;-82
2021/12/03 07:06:17;;;;;;;4.63;1.40;;;19.30;56.90;;;;;;6145265;22;95320;-80
2021/12/03 07:08:43;;;;;;;5.60;1.58;;;19.30;56.80;;;;;;6148110;22;95539;-89
2021/12/03 07:11:08;;;;;;;6.38;1.52;;;19.30;56.70;;;;;;6151047;22;92588;-86
2021/12/03 07:13:34;;;;;;;2.78;1.60;;;19.40;56.70;;;;;;6148992;22;92012;-83
2021/12/03 07:16:00;;;;;;;4.50;1.33;;;19.40;56.60;;;;;;6150042;22;94138;-84
2021/12/03 07:18:25;;;;;;;19.20;2.00;;;19.50;56.60;;;;;;6148109;22;96218;-88
2021/12/03 07:20:51;;;;;;;2.47;1.20;;;19.60;56.50;;;;;;6151930;22;92720;-87
2021/12/03 07:23:17;;;;;;;7.47;1.40;;;19.60;56.40;;;;;;6150889;22;92651;-88
2021/12/03 07:25:43;;;;;;;7.25;1.50;;;19.70;56.50;;;;;;6151856;22;92891;-87
2021/12/03 07:28:08;;;;;;;10.15;1.58;;;19.70;56.50;;;;;;6151583;22;94695;-90
2021/12/03 07:30:34;;;;;;;314.63;45.88;;;19.70;56.90;;;;;;6151134;22;92521;-89
2021/12/03 07:33:01;;;;;;;125.57;19.45;;;19.70;56.40;;;;;;6151345;22;91349;-87
2021/12/03 07:35:27;;;;;;;95.22;13.45;;;19.70;56.40;;;;;;6150957;22;95441;-89
2021/12/03 07:37:53;;;;;;;79.47;10.35;;;19.70;56.40;;;;;;6149640;22;94450;-84
2021/12/03 07:40:18;;;;;;;59.25;8.88;;;19.70;56.40;;;;;;6149560;22;93738;-91
2021/12/03 07:42:44;;;;;;;53.90;9.30;;;19.70;56.50;;;;;;6150611;22;92513;-89
2021/12/03 07:45:13;;;;;;;38.33;7.07;;;19.70;56.50;;;;;;6150568;22;93110;-84
2021/12/03 07:47:39;;;;;;;39.75;6.80;;;19.70;56.50;;;;;;6152604;22;92779;-91
2021/12/03 07:50:07;;;;;;;37.00;7.28;;;19.70;56.70;;;;;;6152899;22;92395;-94
2021/12/03 07:52:34;;;;;;;30.27;5.57;;;19.70;56.80;;;;;;6151503;22;92264;-86
2021/12/03 07:54:59;;;;;;;34.58;6.03;;;19.70;56.80;;;;;;6152661;22;92593;-90
2021/12/03 07:57:25;;;;;;;30.75;6.40;;;19.60;56.80;;;;;;6156321;22;92859;-91
2021/12/03 07:59:51;;;;;;;27.02;5.47;;;19.60;56.80;;;;;;6152566;22;92746;-91
2021/12/03 08:02:17;;;;;;;40.50;5.57;;;19.60;56.80;;;;;;6152897;22;92009;-84
2021/12/03 08:04:43;;;;;;;26.38;5.38;;;19.60;56.90;;;;;;6149279;22;95519;-85
2021/12/03 08:07:09;;;;;;;30.45;6.82;;;19.60;57.00;;;;;;6148880;22;95280;-90
2021/12/03 08:09:35;;;;;;;29.20;6.28;;;19.50;57.10;;;;;;6150714;22;92493;-81
2021/12/03 08:12:00;;;;;;;29.00;6.50;;;19.50;57.20;;;;;;6151014;22;92622;-85
2021/12/03 08:14:27;;;;;;;24.85;5.47;;;19.50;57.20;;;;;;6146777;22;92914;-88
2021/12/03 08:16:52;;;;;;;30.73;5.72;;;19.50;57.20;;;;;;6123922;22;93806;-89
2021/12/03 08:19:18;;;;;;;20.35;4.88;;;19.50;57.10;;;;;;6150554;22;92999;-91
2021/12/03 08:21:43;;;;;;;18.23;5.03;;;19.60;57.00;;;;;;6151538;22;91281;-91
2021/12/03 08:24:09;;;;;;;19.90;5.07;;;19.60;56.90;;;;;;6149951;22;95013;-90
2021/12/03 08:26:36;;;;;;;19.35;4.90;;;19.60;56.80;;;;;;6150482;22;92322;-89
2021/12/03 08:29:04;;;;;;;19.63;4.65;;;19.70;56.70;;;;;;6151764;22;93378;-80
2021/12/03 08:31:30;;;;;;;20.70;4.25;;;19.70;56.50;;;;;;6114417;22;92661;-93
2021/12/03 08:33:55;;;;;;;22.20;5.40;;;19.80;56.30;;;;;;6148806;22;94696;-89
2021/12/03 08:36:21;;;;;;;18.88;4.93;;;19.80;56.00;;;;;;6149686;22;93355;-86
2021/12/03 08:38:47;;;;;;;17.00;4.75;;;19.90;55.90;;;;;;6149153;22;92166;-87
2021/12/03 08:41:17;;;;;;;14.63;4.05;;;20.00;55.80;;;;;;6150294;22;92634;-91
2021/12/03 08:43:44;;;;;;;21.33;4.10;;;20.00;55.50;;;;;;6149447;22;95511;-87
2021/12/03 08:46:14;;;;;;;19.10;4.15;;;20.00;54.70;;;;;;6150372;22;92741;-91
2021/12/03 08:48:44;;;;;;;15.82;3.08;;;20.00;53.90;;;;;;6149542;22;92894;-85
2021/12/03 08:56:30;;;;;;;23.98;5.25;;;20.10;53.00;;;;;;6146269;22;92935;-86
2021/12/03 08:58:55;;;;;;;14.75;3.35;;;20.10;52.90;;;;;;6147929;22;92413;-85
2021/12/03 09:01:21;;;;;;;14.40;3.25;;;20.10;52.80;;;;;;6147801;22;92115;-86
2021/12/03 09:03:48;;;;;;;10.27;2.80;;;20.10;52.60;;;;;;6148301;22;92735;-91
2021/12/03 09:06:13;;;;;;;15.02;4.20;;;20.10;52.40;;;;;;6145024;22;95379;-83
2021/12/03 09:08:39;;;;;;;12.82;4.80;;;20.10;52.30;;;;;;6148657;22;92460;-86
2021/12/03 09:11:05;;;;;;;12.45;3.25;;;20.10;52.10;;;;;;6149327;22;92228;-84
2021/12/03 09:13:31;;;;;;;11.93;3.72;;;20.10;52.10;;;;;;6148805;22;95087;-86
2021/12/03 09:16:07;;;;;;;13.52;3.90;;;20.00;52.00;;;;;;6148283;22;95358;-83
2021/12/03 09:18:36;;;;;;;10.80;3.25;;;20.10;52.10;;;;;;6152477;22;93313;-85
2021/12/03 09:21:12;;;;;;;12.45;2.75;;;20.00;51.90;;;;;;6145251;22;92516;-85
2021/12/03 09:26:24;;;;;;;16.67;3.30;;;20.00;52.00;;;;;;6146686;22;92678;-88
2021/12/03 09:28:57;;;;;;;12.80;3.28;;;20.00;51.80;;;;;;6147245;22;92493;-84
2021/12/03 09:31:23;;;;;;;11.30;3.30;;;20.00;51.80;;;;;;6146076;22;93542;-86
2021/12/03 09:33:50;;;;;;;10.23;2.88;;;20.00;51.70;;;;;;6146189;22;95999;-85
2021/12/03 09:36:15;;;;;;;7.80;2.80;;;20.00;52.10;;;;;;6148929;22;92696;-88
2021/12/03 09:38:41;;;;;;;14.02;3.10;;;20.00;52.20;;;;;;6148902;22;92520;-88
2021/12/03 09:41:11;;;;;;;11.50;2.60;;;20.00;52.20;;;;;;6149088;22;92441;-79
2021/12/03 09:43:41;;;;;;;11.95;2.92;;;20.00;52.20;;;;;;6153988;22;93329;-88
2021/12/03 09:46:15;;;;;;;14.27;2.78;;;20.00;52.10;;;;;;6153358;22;93632;-85
2021/12/03 09:49:18;;;;;;;12.80;3.33;;;19.90;52.10;;;;;;6153332;22;92584;-95
2021/12/03 09:51:53;;;;;;;12.20;2.78;;;20.00;52.00;;;;;;6148881;22;92294;-81
2021/12/03 09:54:35;;;;;;;14.38;3.85;;;19.90;52.10;;;;;;6147962;22;92932;-90
2021/12/03 09:57:15;;;;;;;8.70;2.70;;;20.00;52.10;;;;;;6151098;22;92815;-93
2021/12/03 10:18:52;;;;;;;7.97;2.70;;;19.90;49.90;;;;;;6144317;22;94059;-84
2021/12/03 10:32:48;;;;;;;8.57;2.08;;;19.80;49.90;;;;;;6149239;22;92750;-82
2021/12/03 10:35:34;;;;;;;6.28;2.10;;;19.80;50.00;;;;;;6150483;22;92204;-88
2021/12/03 10:49:29;;;;;;;6.97;2.15;;;19.60;50.20;;;;;;6134680;22;92990;-90
2021/12/03 10:58:13;;;;;;;7.07;2.20;;;19.60;50.40;;;;;;6150658;22;91382;-74
2021/12/03 11:08:30;;;;;;;7.72;1.92;;;19.60;50.80;;;;;;6149696;22;93254;-74
2021/12/03 11:56:49;;;;;;;5.07;1.80;;;20.30;53.80;;;;;;6146980;22;93088;-76
2021/12/03 12:18:59;;;;;;;5.55;1.38;;;20.50;54.40;;;;;;6145957;22;92500;-75
2021/12/03 12:58:35;;;;;;;5.28;1.33;;;20.40;56.30;;;;;;6146433;22;93738;-73
2021/12/03 13:03:54;;;;;;;4.35;1.13;;;20.30;56.80;;;;;;6147914;22;92839;-74
2021/12/03 13:19:27;;;;;;;8.18;1.92;;;20.20;54.40;;;;;;6145878;22;91953;-75
2021/12/03 14:06:27;;;;;;;9.70;2.30;;;19.80;52.60;;;;;;6147279;22;92684;-73
2021/12/03 14:55:46;;;;;;;9.77;3.00;;;20.10;52.60;;;;;;6145902;22;92560;-74
2021/12/03 14:58:15;;;;;;;6.30;2.30;;;20.10;52.60;;;;;;6146111;22;92763;-74
2021/12/03 15:08:39;;;;;;;8.90;2.60;;;20.10;52.60;;;;;;6147527;22;92807;-74
2021/12/03 15:19:07;;;;;;;12.00;2.88;;;20.20;52.30;;;;;;6144592;22;92140;-74
2021/12/03 15:30:01;;;;;;;7.05;2.63;;;20.20;52.00;;;;;;6145584;22;92795;-73
2021/12/03 15:32:34;;;;;;;6.38;1.77;;;20.20;52.00;;;;;;6147068;22;91511;-74
2021/12/03 15:54:15;;;;;;;5.18;2.05;;;20.20;51.90;;;;;;6148237;22;92210;-75
2021/12/03 16:04:13;;;;;;;7.85;1.92;;;20.20;52.30;;;;;;6145047;22;92706;-74
2021/12/03 16:06:45;;;;;;;8.50;2.22;;;20.20;52.40;;;;;;6145633;22;94001;-75
2021/12/03 16:22:39;;;;;;;5.85;2.08;;;20.20;52.80;;;;;;6147142;22;93029;-74
2021/12/03 16:46:48;;;;;;;5.55;1.80;;;20.00;52.80;;;;;;6149587;22;92537;-74
2021/12/03 16:51:55;;;;;;;4.88;1.73;;;20.00;52.70;;;;;;6143747;22;92235;-74
2021/12/03 16:54:33;;;;;;;4.82;1.50;;;20.00;52.70;;;;;;6144691;22;92536;-74
2021/12/03 16:56:59;;;;;;;6.40;1.95;;;20.00;52.80;;;;;;6140912;22;92865;-74
2021/12/03 16:59:25;;;;;;;7.90;1.65;;;20.00;52.90;;;;;;6140395;22;93506;-75
2021/12/03 17:02:13;;;;;;;5.53;1.70;;;20.00;53.10;;;;;;6140510;22;95211;-75
2021/12/03 17:08:10;;;;;;;5.47;1.65;;;20.00;53.20;;;;;;6142467;22;92821;-75
2021/12/03 17:49:53;;;;;;;4.30;1.48;;;19.70;53.80;;;;;;6143446;22;92416;-75
2021/12/03 17:52:43;;;;;;;5.25;1.90;;;19.70;53.80;;;;;;6143267;22;94892;-74
2021/12/03 18:00:05;;;;;;;2.47;1.10;;;19.70;54.00;;;;;;6143997;22;92684;-75
2021/12/03 18:02:49;;;;;;;4.68;1.30;;;19.70;54.10;;;;;;6144383;22;93631;-74
2021/12/03 18:05:33;;;;;;;3.60;1.65;;;19.70;54.10;;;;;;6143926;22;92555;-74
2021/12/03 18:08:12;;;;;;;4.60;1.35;;;19.70;54.10;;;;;;6143988;22;92781;-74
2021/12/03 18:10:58;;;;;;;4.95;1.33;;;19.70;54.20;;;;;;6143275;22;92136;-74
2021/12/03 18:55:57;;;;;;;3.38;1.50;;;19.80;54.50;;;;;;6142309;22;92549;-74
2021/12/03 18:58:25;;;;;;;3.83;1.13;;;19.70;54.50;;;;;;6144410;22;93153;-73
2021/12/03 19:01:05;;;;;;;4.53;1.20;;;19.70;54.50;;;;;;6144885;22;92403;-73
2021/12/03 19:06:22;;;;;;;4.05;1.17;;;19.70;54.60;;;;;;6142204;22;92782;-74
2021/12/03 19:08:55;;;;;;;4.80;1.40;;;19.80;54.60;;;;;;6143138;22;92469;-74
2021/12/03 19:11:25;;;;;;;3.15;1.33;;;19.70;54.50;;;;;;6143034;22;93840;-74
2021/12/03 19:13:52;;;;;;;2.78;1.30;;;19.70;54.50;;;;;;6141950;22;92837;-74
2021/12/03 19:16:22;;;;;;;2.50;0.85;;;19.80;54.50;;;;;;6142393;22;92807;-74
2021/12/03 19:18:50;;;;;;;1.45;1.05;;;19.80;54.50;;;;;;6142190;22;95402;-74
2021/12/03 19:21:23;;;;;;;3.50;1.20;;;19.70;54.40;;;;;;6143786;22;92749;-74
2021/12/03 19:23:57;;;;;;;4.07;1.67;;;19.80;54.50;;;;;;6142979;22;92476;-73
2021/12/03 19:26:28;;;;;;;4.28;1.35;;;19.80;54.50;;;;;;6143526;22;92531;-75
2021/12/03 19:28:54;;;;;;;2.92;1.10;;;19.70;54.40;;;;;;6146783;22;93145;-74
2021/12/03 19:31:22;;;;;;;3.15;1.27;;;19.80;54.40;;;;;;6145661;22;92844;-75
2021/12/03 19:33:48;;;;;;;3.95;1.30;;;19.80;54.50;;;;;;6143595;22;93204;-73
2021/12/03 19:36:25;;;;;;;2.10;0.95;;;19.80;54.50;;;;;;6142780;22;94055;-74
2021/12/03 19:38:53;;;;;;;3.10;1.10;;;19.80;54.50;;;;;;6142372;22;94305;-74
2021/12/03 19:43:52;;;;;;;2.85;0.90;;;19.80;54.60;;;;;;6144527;22;92716;-73
2021/12/03 19:46:20;;;;;;;4.28;1.38;;;19.80;54.60;;;;;;6143337;22;95350;-74
2021/12/03 19:49:00;;;;;;;3.60;1.15;;;19.70;54.50;;;;;;6144476;22;92648;-75
2021/12/03 19:51:28;;;;;;;2.10;0.90;;;19.70;54.50;;;;;;6144744;22;92554;-75
2021/12/03 19:53:59;;;;;;;2.60;1.10;;;19.70;54.60;;;;;;6143810;22;91589;-74
2021/12/03 19:56:28;;;;;;;2.97;0.90;;;19.70;54.60;;;;;;6144657;22;93062;-74
2021/12/03 19:58:56;;;;;;;3.05;1.23;;;19.70;54.50;;;;;;6144189;22;92779;-74
2021/12/03 20:01:22;;;;;;;2.63;1.00;;;19.70;54.50;;;;;;6142243;22;93076;-74
2021/12/03 20:03:51;;;;;;;3.83;1.40;;;19.70;54.50;;;;;;6144920;22;92832;-74
2021/12/03 20:06:17;;;;;;;3.90;1.10;;;19.70;54.50;;;;;;6144796;22;92980;-74
2021/12/03 20:08:43;;;;;;;3.33;1.10;;;19.70;54.50;;;;;;6143730;22;92354;-74
2021/12/03 20:11:09;;;;;;;4.20;1.13;;;19.70;54.50;;;;;;6144631;22;92704;-74
2021/12/03 20:13:36;;;;;;;2.58;1.00;;;19.70;54.40;;;;;;6143677;22;92750;-74
2021/12/03 20:16:38;;;;;;;1.67;0.70;;;19.80;54.50;;;;;;6139671;22;96096;-74
2021/12/03 20:18:59;;;;;;;2.38;0.95;;;19.80;54.50;;;;;;6143066;22;93393;-74
2021/12/03 20:21:27;;;;;;;2.50;1.00;;;19.80;54.50;;;;;;6143783;22;92331;-74
2021/12/03 20:24:07;;;;;;;4.07;1.70;;;19.70;54.40;;;;;;6144345;22;92156;-75
2021/12/03 20:26:48;;;;;;;4.57;1.02;;;19.80;54.50;;;;;;6141924;22;95226;-74